SBTT

Tabatinga International Airport

Airport
ICAO code
SBTT
IATA Code
TBT
Summary
ICAO Region
CARSAM
ICAO Territory
Location

Tabatinga, Amazonas

Serving
Tabatinga
Elevation
279 ft
Coordinates
4° 15' 25" S , 69° 56' 16" W
KCC
Metar
SBTT 221900Z 31006KT 9999 FEW030 30/23 Q1011

Tabatinga International Airport (IATA: TBT, ICAO: SBTT) is the airport serving Tabatinga, Brazil, located by the border with Colombia and Peru.

Climatology

Tropical rainforest climate (Köppen climate classification Af)

Runways

Designator Length Width Surface Rops
12/30 2150 30 ASP No/No

Airport map

Aerial View

SKYbrary Partners:

Safety knowledge contributed by: